createdAt,value
2019-04-21T00:00:45.657Z,3.20
2019-04-21T00:03:20.605Z,3.20
2019-04-21T00:06:06.088Z,3.10
2019-04-21T00:08:39.447Z,3.20
2019-04-21T00:11:10.758Z,3.30
2019-04-21T00:13:32.842Z,3.20
2019-04-21T00:15:57.908Z,3.10
2019-04-21T00:18:40.729Z,3.10
2019-04-21T00:21:14.848Z,3.10
2019-04-21T00:23:58.469Z,3.00
2019-04-21T00:26:31.074Z,3.00
2019-04-21T00:29:09.414Z,3.00
2019-04-21T00:31:36.718Z,3.00
2019-04-21T00:33:49.778Z,2.90
2019-04-21T00:36:26.182Z,2.90
2019-04-21T00:39:23.212Z,2.90
2019-04-21T00:41:45.786Z,2.90
2019-04-21T00:44:08.715Z,2.90
2019-04-21T00:46:45.226Z,2.90
2019-04-21T00:49:16.940Z,2.90
2019-04-21T00:52:06.087Z,2.90
2019-04-21T00:54:41.548Z,2.90
2019-04-21T00:57:12.017Z,2.90
2019-04-21T00:59:45.411Z,2.90
2019-04-21T01:02:09.147Z,2.90
2019-04-21T01:04:49.535Z,2.90
2019-04-21T01:07:19.418Z,2.80
2019-04-21T01:09:45.293Z,2.80
2019-04-21T01:12:23.245Z,2.80
2019-04-21T01:14:56.871Z,2.80
2019-04-21T01:17:27.693Z,2.70
2019-04-21T01:19:51.224Z,2.70
2019-04-21T01:22:10.033Z,2.60
2019-04-21T01:24:45.244Z,2.60
2019-04-21T01:27:22.602Z,2.60
2019-04-21T01:30:08.231Z,2.60
2019-04-21T01:32:34.348Z,2.60
2019-04-21T01:35:12.038Z,2.60
2019-04-21T01:37:44.355Z,2.60
2019-04-21T01:40:21.231Z,2.70
2019-04-21T01:43:01.541Z,2.70
2019-04-21T01:45:26.466Z,2.70
2019-04-21T01:47:57.487Z,2.60
2019-04-21T01:50:29.954Z,2.50
2019-04-21T01:53:22.518Z,2.40
2019-04-21T01:55:54.412Z,2.40
2019-04-21T01:58:23.001Z,2.40
2019-04-21T02:00:56.812Z,2.40
2019-04-21T02:06:11.088Z,2.40
2019-04-21T02:08:38.753Z,2.40
2019-04-21T02:13:53.413Z,2.40
2019-04-21T02:16:17.709Z,2.40
2019-04-21T02:18:49.460Z,2.40
2019-04-21T02:21:19.072Z,2.40
2019-04-21T02:23:59.057Z,2.30
2019-04-21T02:26:28.564Z,2.30
2019-04-21T02:29:00.074Z,2.30
2019-04-21T02:31:45.171Z,2.30
2019-04-21T02:36:53.450Z,2.20
2019-04-21T02:41:54.610Z,2.30
2019-04-21T02:46:46.362Z,2.40
2019-04-21T02:52:08.460Z,2.60
2019-04-21T02:54:47.740Z,2.70
2019-04-21T03:00:04.114Z,2.90
2019-04-21T03:02:38.995Z,3.50
2019-04-21T03:05:21.050Z,4.50
2019-04-21T03:07:56.921Z,5.40
2019-04-21T03:10:26.229Z,6.50
2019-04-21T03:12:50.990Z,7.20
2019-04-21T03:15:31.517Z,8.10
2019-04-21T03:18:06.555Z,9.20
2019-04-21T03:20:48.150Z,10.10
2019-04-21T03:23:13.365Z,10.60
2019-04-21T03:25:41.896Z,10.50
2019-04-21T03:28:13.972Z,11.50
2019-04-21T03:40:50.692Z,12.40
2019-04-21T03:45:49.163Z,12.60
2019-04-21T03:48:35.566Z,12.90
2019-04-21T03:50:59.485Z,13.60
2019-04-21T03:53:32.013Z,14.40
2019-04-21T03:58:46.993Z,14.90
2019-04-21T04:01:11.372Z,15.60
2019-04-21T04:06:19.658Z,15.90
2019-04-21T04:11:47.381Z,16.70
2019-04-21T04:14:31.073Z,17.30
2019-04-21T04:19:18.651Z,16.10
2019-04-21T04:21:56.545Z,17.10
2019-04-21T04:24:44.769Z,17.00
2019-04-21T04:26:57.805Z,16.60
2019-04-21T04:37:23.611Z,16.70
2019-04-21T04:42:29.852Z,16.20
2019-04-21T04:45:05.677Z,16.20
2019-04-21T04:49:55.074Z,16.90
2019-04-21T04:55:01.454Z,16.80
2019-04-21T05:02:42.054Z,17.00
2019-04-21T05:05:26.848Z,16.80
2019-04-21T05:07:58.035Z,17.00
2019-04-21T05:10:47.667Z,16.90
2019-04-21T05:13:14.254Z,17.00
2019-04-21T05:15:34.483Z,18.10
2019-04-21T05:18:16.347Z,17.90
2019-04-21T05:20:41.794Z,17.80
2019-04-21T05:23:06.263Z,17.70
2019-04-21T05:25:40.434Z,17.20
2019-04-21T05:28:05.436Z,16.60
2019-04-21T05:31:13.886Z,16.90
2019-04-21T05:33:44.977Z,15.60
2019-04-21T05:36:34.320Z,14.80
2019-04-21T05:39:03.894Z,16.20
2019-04-21T05:41:29.648Z,16.30
2019-04-21T05:44:21.345Z,17.80
2019-04-21T05:47:00.960Z,18.50
2019-04-21T05:49:29.270Z,18.00
2019-04-21T05:51:58.355Z,18.20
2019-04-21T05:54:44.365Z,19.10
2019-04-21T05:57:10.108Z,18.60
2019-04-21T05:59:43.494Z,18.50
2019-04-21T06:02:27.741Z,18.80
2019-04-21T06:07:28.762Z,20.40
2019-04-21T06:09:59.983Z,20.40
2019-04-21T06:12:35.984Z,20.50
2019-04-21T06:15:21.386Z,21.00
2019-04-21T06:17:36.907Z,19.40
2019-04-21T06:20:17.133Z,20.00
2019-04-21T06:22:56.525Z,19.50
2019-04-21T06:28:08.991Z,19.00
2019-04-21T06:30:45.220Z,18.60
2019-04-21T06:33:10.390Z,18.20
2019-04-21T06:36:41.388Z,18.30
2019-04-21T06:41:34.243Z,17.50
2019-04-21T06:44:24.006Z,16.00
2019-04-21T06:46:39.335Z,14.90
2019-04-21T06:49:17.313Z,14.20
2019-04-21T06:51:43.538Z,13.50
2019-04-21T06:54:23.455Z,13.50
2019-04-21T06:56:51.732Z,13.10
2019-04-21T06:59:30.004Z,13.00
2019-04-21T07:02:28.710Z,13.10
2019-04-21T07:04:38.175Z,13.10
2019-04-21T07:07:05.107Z,13.30
2019-04-21T07:09:36.469Z,13.60
2019-04-21T07:12:06.102Z,13.90
2019-04-21T07:14:48.230Z,14.00
2019-04-21T07:17:19.922Z,13.90
2019-04-21T07:19:48.054Z,14.10
2019-04-21T07:22:30.554Z,14.20
2019-04-21T07:25:03.056Z,14.20
2019-04-21T07:27:35.307Z,14.10
2019-04-21T07:30:04.233Z,14.10
2019-04-21T07:32:33.686Z,14.20
2019-04-21T07:35:09.658Z,13.90
2019-04-21T07:37:47.868Z,14.00
2019-04-21T07:40:22.298Z,14.20
2019-04-21T07:42:55.689Z,13.80
2019-04-21T07:45:24.012Z,13.60
2019-04-21T07:48:13.772Z,13.60
2019-04-21T07:51:04.314Z,13.60
2019-04-21T07:53:51.253Z,13.60
2019-04-21T07:56:07.374Z,13.60
2019-04-21T07:58:58.227Z,13.80
2019-04-21T08:01:30.839Z,13.80
2019-04-21T08:04:08.495Z,13.80
2019-04-21T08:06:40.786Z,14.00
2019-04-21T08:09:12.605Z,14.30
2019-04-21T08:11:42.893Z,14.20
2019-04-21T08:14:31.629Z,14.10
2019-04-21T08:17:04.859Z,13.80
2019-04-21T08:19:36.502Z,14.00
2019-04-21T08:22:12.500Z,13.90
2019-04-21T08:24:51.788Z,13.70
2019-04-21T08:27:32.402Z,13.80
2019-04-21T08:30:07.468Z,14.00
2019-04-21T08:32:44.326Z,13.90
2019-04-21T08:35:49.273Z,13.70
2019-04-21T08:37:48.406Z,13.70
2019-04-21T08:40:27.326Z,13.90
2019-04-21T08:42:55.262Z,14.00
2019-04-21T08:45:35.439Z,13.90
2019-04-21T08:48:12.363Z,13.90
2019-04-21T08:50:41.453Z,14.10
2019-04-21T08:53:16.943Z,14.00
2019-04-21T08:55:59.178Z,14.40
2019-04-21T08:58:47.906Z,14.60
2019-04-21T09:01:18.030Z,14.60
2019-04-21T09:03:56.570Z,14.50
2019-04-21T09:06:40.254Z,14.10
2019-04-21T09:08:58.208Z,14.00
2019-04-21T09:11:28.790Z,13.90
2019-04-21T09:14:01.027Z,14.00
2019-04-21T09:16:30.727Z,14.10
2019-04-21T09:18:58.057Z,14.30
2019-04-21T09:21:43.789Z,14.20
2019-04-21T09:24:18.994Z,14.40
2019-04-21T09:26:46.493Z,14.30
2019-04-21T09:29:10.863Z,14.10
2019-04-21T09:31:39.928Z,14.30
2019-04-21T09:34:08.960Z,14.50
2019-04-21T09:36:46.758Z,14.60
2019-04-21T09:39:18.264Z,14.60
2019-04-21T09:41:51.216Z,14.60
2019-04-21T09:44:25.409Z,14.40
2019-04-21T09:46:55.975Z,14.70
2019-04-21T09:49:27.908Z,14.70
2019-04-21T09:51:57.441Z,14.60
2019-04-21T09:54:41.015Z,14.50
2019-04-21T09:57:14.502Z,14.50
2019-04-21T09:59:42.156Z,14.80
2019-04-21T10:02:21.301Z,15.00
2019-04-21T10:04:48.217Z,15.10
2019-04-21T10:07:27.509Z,15.10
2019-04-21T10:09:54.571Z,15.00
2019-04-21T10:12:30.739Z,14.50
2019-04-21T10:15:16.447Z,14.50
2019-04-21T10:17:54.065Z,14.40
2019-04-21T10:20:26.526Z,14.70
2019-04-21T10:22:57.367Z,14.70
2019-04-21T10:25:28.515Z,14.60
2019-04-21T10:27:59.093Z,14.60
2019-04-21T10:30:30.686Z,14.90
2019-04-21T10:33:01.295Z,15.00
2019-04-21T10:35:32.959Z,14.80
2019-04-21T10:38:17.997Z,14.60
2019-04-21T10:40:37.680Z,14.60
2019-04-21T10:43:12.008Z,14.90
2019-04-21T10:45:41.080Z,14.80
2019-04-21T10:48:14.663Z,14.90
2019-04-21T10:50:49.420Z,15.10
2019-04-21T10:53:36.706Z,15.40
2019-04-21T10:56:17.980Z,15.50
2019-04-21T10:58:44.472Z,15.50
2019-04-21T11:01:21.155Z,15.40
2019-04-21T11:04:17.275Z,15.30
2019-04-21T11:06:42.302Z,15.20
2019-04-21T11:09:18.042Z,15.00
2019-04-21T11:11:50.313Z,15.00
2019-04-21T11:14:23.131Z,14.90
2019-04-21T11:16:53.060Z,15.00
2019-04-21T11:19:25.143Z,15.10
2019-04-21T11:21:58.781Z,15.10
2019-04-21T11:24:33.307Z,15.50
2019-04-21T11:27:04.625Z,15.80
2019-04-21T11:29:35.260Z,15.90
2019-04-21T11:32:07.158Z,15.60
2019-04-21T11:34:38.998Z,15.10
2019-04-21T11:37:16.333Z,15.00
2019-04-21T11:39:56.660Z,15.10
2019-04-21T11:42:23.734Z,15.20
2019-04-21T11:44:55.355Z,15.40
2019-04-21T11:47:30.344Z,15.50
2019-04-21T11:50:01.139Z,15.50
2019-04-21T11:52:34.676Z,15.30
2019-04-21T11:55:16.596Z,15.20
2019-04-21T11:57:50.172Z,15.20
2019-04-21T12:00:21.774Z,15.30
2019-04-21T12:02:55.439Z,15.10
2019-04-21T12:05:25.843Z,15.30
2019-04-21T12:07:58.521Z,15.60
2019-04-21T12:10:29.275Z,15.80
2019-04-21T12:13:01.294Z,15.70
2019-04-21T12:15:32.479Z,15.70
2019-04-21T12:18:03.825Z,15.70
2019-04-21T12:20:35.721Z,15.90
2019-04-21T12:23:06.719Z,16.10
2019-04-21T12:25:40.989Z,16.10
2019-04-21T12:28:32.418Z,16.00
2019-04-21T12:31:05.381Z,15.70
2019-04-21T12:33:47.766Z,15.80
2019-04-21T12:36:19.822Z,15.80
2019-04-21T12:38:55.822Z,16.00
2019-04-21T12:41:22.615Z,16.20
2019-04-21T12:43:57.305Z,16.20
2019-04-21T12:46:27.751Z,16.20
2019-04-21T12:49:02.517Z,15.90
2019-04-21T12:51:33.753Z,16.00
2019-04-21T12:54:05.868Z,16.20
2019-04-21T12:56:37.589Z,16.40
2019-04-21T12:59:09.917Z,16.40
2019-04-21T13:01:43.547Z,16.40
2019-04-21T13:04:13.973Z,16.30
2019-04-21T13:06:45.999Z,16.20
2019-04-21T13:09:27.470Z,16.20
2019-04-21T13:11:59.381Z,16.00
2019-04-21T13:14:39.888Z,15.90
2019-04-21T13:17:10.469Z,16.00
2019-04-21T13:19:43.214Z,16.00
2019-04-21T13:22:14.186Z,16.00
2019-04-21T13:24:44.875Z,15.80
2019-04-21T13:27:15.563Z,15.60
2019-04-21T13:29:46.414Z,15.50
2019-04-21T13:32:37.281Z,15.60
2019-04-21T13:35:10.817Z,15.80
2019-04-21T13:37:45.613Z,15.90
2019-04-21T13:40:44.969Z,16.00
2019-04-21T13:43:08.122Z,16.00
2019-04-21T13:45:37.320Z,15.90
2019-04-21T13:48:08.446Z,15.80
2019-04-21T13:50:43.635Z,15.90
2019-04-21T13:53:14.755Z,15.90
2019-04-21T13:55:46.746Z,16.10
2019-04-21T13:58:20.155Z,16.20
2019-04-21T14:00:52.800Z,16.00
2019-04-21T14:03:29.145Z,16.10
2019-04-21T14:06:00.273Z,16.10
2019-04-21T14:08:33.967Z,16.00
2019-04-21T14:11:05.129Z,16.00
2019-04-21T14:13:36.442Z,15.90
2019-04-21T14:16:08.110Z,15.90
2019-04-21T14:18:45.470Z,15.80
2019-04-21T14:21:21.171Z,16.00
2019-04-21T14:24:06.842Z,16.20
2019-04-21T14:26:44.467Z,16.30
2019-04-21T14:29:19.294Z,16.50
2019-04-21T14:31:50.580Z,16.30
2019-04-21T14:34:21.860Z,16.10
2019-04-21T14:36:52.971Z,15.90
2019-04-21T14:39:26.384Z,15.90
2019-04-21T14:41:58.140Z,15.70
2019-04-21T14:44:36.994Z,15.60
2019-04-21T14:47:09.371Z,15.40
2019-04-21T14:49:44.946Z,15.20
2019-04-21T14:52:21.116Z,15.00
2019-04-21T14:55:00.511Z,14.90
2019-04-21T14:57:31.654Z,14.80
2019-04-21T15:00:04.913Z,14.70
2019-04-21T15:02:38.124Z,14.70
2019-04-21T15:05:15.677Z,14.70
2019-04-21T15:08:09.126Z,14.70
2019-04-21T15:10:41.225Z,14.60
2019-04-21T15:13:17.348Z,14.60
2019-04-21T15:15:52.372Z,14.50
2019-04-21T15:18:22.994Z,14.60
2019-04-21T15:20:53.458Z,14.60
2019-04-21T15:23:30.179Z,14.60
2019-04-21T15:25:56.867Z,14.60
2019-04-21T15:28:31.604Z,14.70
2019-04-21T15:31:00.812Z,14.70
2019-04-21T15:33:35.006Z,14.70
2019-04-21T15:36:11.260Z,14.70
2019-04-21T15:38:45.834Z,14.80
2019-04-21T15:41:18.590Z,14.80
2019-04-21T15:43:54.342Z,14.80
2019-04-21T15:46:29.146Z,14.80
2019-04-21T15:49:02.799Z,14.70
2019-04-21T15:51:42.056Z,14.70
2019-04-21T15:54:14.326Z,14.70
2019-04-21T15:56:53.032Z,14.60
2019-04-21T15:59:30.438Z,14.60
2019-04-21T16:02:38.362Z,14.50
2019-04-21T16:05:14.928Z,14.50
2019-04-21T16:07:46.072Z,14.40
2019-04-21T16:10:30.959Z,14.30
2019-04-21T16:12:58.112Z,14.20
2019-04-21T16:15:32.611Z,14.10
2019-04-21T16:18:14.236Z,14.00
2019-04-21T16:20:48.317Z,14.00
2019-04-21T16:24:06.762Z,13.90
2019-04-21T16:26:40.520Z,13.80
2019-04-21T16:29:11.341Z,13.60
2019-04-21T16:31:49.224Z,13.50
2019-04-21T16:37:08.064Z,13.30
2019-04-21T16:39:43.241Z,13.10
2019-04-21T16:42:14.138Z,13.00
2019-04-21T16:44:54.847Z,12.80
2019-04-21T16:47:26.102Z,12.60
2019-04-21T16:49:57.992Z,12.50
2019-04-21T16:52:43.626Z,12.40
2019-04-21T16:55:28.880Z,12.10
2019-04-21T16:58:14.813Z,12.00
2019-04-21T17:00:53.933Z,11.90
2019-04-21T17:03:16.646Z,11.90
2019-04-21T17:05:48.111Z,11.80
2019-04-21T17:08:19.794Z,11.90
2019-04-21T17:11:06.465Z,11.90
2019-04-21T17:16:38.691Z,11.70
2019-04-21T17:18:56.035Z,11.60
2019-04-21T17:21:34.422Z,11.50
2019-04-21T17:24:10.529Z,11.50
2019-04-21T17:26:43.972Z,11.50
2019-04-21T17:29:17.016Z,11.40
2019-04-21T17:35:42.796Z,11.10
2019-04-21T17:38:18.500Z,10.90
2019-04-21T17:40:49.567Z,10.70
2019-04-21T17:43:21.433Z,10.60
2019-04-21T17:45:53.201Z,10.40
2019-04-21T17:48:27.105Z,10.40
2019-04-21T17:51:09.453Z,10.20
2019-04-21T17:53:47.538Z,10.10
2019-04-21T17:56:41.360Z,9.90
2019-04-21T17:59:17.581Z,9.70
2019-04-21T18:02:02.435Z,9.60
2019-04-21T18:04:38.974Z,9.40
2019-04-21T18:07:15.515Z,9.30
2019-04-21T18:09:59.062Z,9.20
2019-04-21T18:12:25.005Z,9.10
2019-04-21T18:14:55.492Z,9.00
2019-04-21T18:17:16.231Z,8.90
2019-04-21T18:19:47.924Z,8.80
2019-04-21T18:22:38.532Z,8.80
2019-04-21T18:25:13.796Z,8.70
2019-04-21T18:27:40.803Z,8.70
2019-04-21T18:30:38.099Z,8.70
2019-04-21T18:33:14.156Z,8.70
2019-04-21T18:36:02.954Z,8.60
2019-04-21T18:39:00.168Z,8.50
2019-04-21T18:41:17.423Z,8.50
2019-04-21T18:44:13.636Z,8.40
2019-04-21T18:47:00.434Z,8.30
2019-04-21T18:49:33.265Z,8.30
2019-04-21T18:52:26.911Z,8.30
2019-04-21T18:55:06.353Z,8.50
2019-04-21T18:57:37.485Z,8.50
2019-04-21T19:00:07.819Z,8.60
2019-04-21T19:02:40.439Z,8.60
2019-04-21T19:05:15.513Z,8.50
2019-04-21T19:08:03.100Z,8.30
2019-04-21T19:11:01.254Z,8.50
2019-04-21T19:13:55.294Z,8.50
2019-04-21T19:18:53.050Z,8.30
2019-04-21T19:21:12.850Z,8.20
2019-04-21T19:23:55.735Z,8.10
2019-04-21T19:26:31.502Z,8.00
2019-04-21T19:29:06.299Z,7.90
2019-04-21T19:31:32.228Z,7.80
2019-04-21T19:34:00.989Z,8.00
2019-04-21T19:36:25.606Z,8.00
2019-04-21T19:39:07.516Z,8.00
2019-04-21T19:41:45.662Z,7.90
2019-04-21T19:44:22.337Z,7.90
2019-04-21T19:46:55.950Z,8.00
2019-04-21T19:49:33.523Z,8.00
2019-04-21T19:51:52.211Z,8.00
2019-04-21T19:54:24.033Z,8.10
2019-04-21T19:56:47.074Z,8.20
2019-04-21T19:59:30.667Z,8.50
2019-04-21T20:02:02.592Z,8.60
2019-04-21T20:04:42.796Z,8.60
2019-04-21T20:07:56.039Z,8.60
2019-04-21T20:14:18.326Z,8.40
2019-04-21T20:20:11.307Z,8.20
2019-04-21T20:30:10.825Z,7.80
2019-04-21T20:43:11.344Z,8.10
2019-04-21T20:52:03.604Z,8.10
2019-04-21T20:54:30.095Z,8.00
2019-04-21T20:57:06.958Z,7.90
2019-04-21T20:59:34.476Z,7.90
2019-04-21T21:02:05.518Z,7.80
2019-04-21T21:04:30.093Z,7.80
2019-04-21T21:07:20.879Z,7.70
2019-04-21T21:09:41.222Z,7.60
2019-04-21T21:14:47.452Z,7.60
2019-04-21T21:17:40.797Z,7.60
2019-04-21T21:20:05.559Z,7.50
2019-04-21T21:22:24.883Z,7.60
2019-04-21T21:25:00.253Z,7.60
2019-04-21T21:27:30.112Z,7.60
2019-04-21T21:30:01.560Z,7.40
2019-04-21T21:32:40.066Z,7.30
2019-04-21T21:35:12.033Z,7.20
2019-04-21T21:37:41.086Z,7.50
2019-04-21T21:40:18.668Z,7.40
2019-04-21T21:42:33.827Z,7.30
2019-04-21T21:45:06.098Z,7.20
2019-04-21T21:47:50.033Z,7.10
2019-04-21T21:50:15.087Z,7.00
2019-04-21T21:52:48.960Z,7.00
2019-04-21T21:55:09.865Z,7.10
2019-04-21T21:57:47.385Z,7.10
2019-04-21T22:00:15.528Z,7.00
2019-04-21T22:02:52.781Z,6.90
2019-04-21T22:05:24.358Z,6.90
2019-04-21T22:07:54.302Z,6.90
2019-04-21T22:10:25.298Z,7.00
2019-04-21T22:13:03.999Z,6.90
2019-04-21T22:15:30.279Z,6.70
2019-04-21T22:18:22.517Z,6.60
2019-04-21T22:20:47.605Z,6.50
2019-04-21T22:23:11.283Z,6.40
2019-04-21T22:25:39.508Z,6.30
2019-04-21T22:28:09.572Z,6.30
2019-04-21T22:30:45.675Z,6.20
2019-04-21T22:33:15.837Z,6.20
2019-04-21T22:35:53.326Z,6.20
2019-04-21T22:38:34.821Z,6.20
2019-04-21T22:41:02.928Z,6.20
2019-04-21T22:43:28.516Z,6.20
2019-04-21T22:45:53.680Z,6.20
2019-04-21T22:48:28.261Z,6.10
2019-04-21T22:50:56.505Z,6.00
2019-04-21T22:53:27.994Z,6.10
2019-04-21T22:56:07.385Z,5.90
2019-04-21T22:58:35.692Z,5.80
2019-04-21T23:01:04.223Z,5.90
2019-04-21T23:03:35.775Z,5.80
2019-04-21T23:06:14.562Z,5.90
2019-04-21T23:08:43.497Z,5.80
2019-04-21T23:11:12.554Z,5.80
2019-04-21T23:13:45.027Z,5.70
2019-04-21T23:16:20.529Z,5.70
2019-04-21T23:19:09.639Z,5.70
2019-04-21T23:21:44.212Z,5.70
2019-04-21T23:24:08.752Z,5.70
2019-04-21T23:26:39.417Z,5.60
2019-04-21T23:29:15.642Z,5.50
2019-04-21T23:31:47.118Z,5.60
2019-04-21T23:34:02.360Z,5.60
2019-04-21T23:36:35.253Z,5.50
2019-04-21T23:39:18.319Z,5.40
2019-04-21T23:41:46.205Z,5.40
2019-04-21T23:44:13.676Z,5.40
2019-04-21T23:46:44.443Z,5.40
2019-04-21T23:49:31.944Z,5.30
2019-04-21T23:51:54.957Z,5.20
2019-04-21T23:54:19.818Z,5.10
2019-04-21T23:56:51.458Z,5.10
2019-04-21T23:59:22.593Z,5.20
